Terminal Aerodrome Forecast
Issued by NWS

Home | Current Version | Previous Version | Text Only | Print | Product List | Glossary On
Versions: 1 2 3 4 5 6 7 8 9 10 11 12
515
FTUS44 KEPZ 041131
TAFLRU
TAF
KLRU 041131Z 0412/0512 12008KT P6SM SKC
     FM041600 13010G20KT P6SM SKC
     FM042300 10006KT P6SM FEW100 BKN250=

USA.gov is the U.S. government's official web portal to all federal, state and local government web resources and services.